sensor_id;sensor_type;location;lat;lon;timestamp;P1;durP1;ratioP1;P2;durP2;ratioP2
76292;SDS011;67256;51.154;4.164;2023-11-18T00:01:15;19.88;;;13.13;;
76292;SDS011;67256;51.154;4.164;2023-11-18T00:03:41;20.95;;;13.18;;
76292;SDS011;67256;51.154;4.164;2023-11-18T00:06:07;22.15;;;13.80;;
76292;SDS011;67256;51.154;4.164;2023-11-18T00:08:33;18.83;;;13.57;;
76292;SDS011;67256;51.154;4.164;2023-11-18T00:10:59;18.42;;;13.48;;
76292;SDS011;67256;51.154;4.164;2023-11-18T00:13:25;22.25;;;13.95;;
76292;SDS011;67256;51.154;4.164;2023-11-18T00:15:54;19.52;;;12.68;;
76292;SDS011;67256;51.154;4.164;2023-11-18T00:18:20;19.83;;;13.60;;
76292;SDS011;67256;51.154;4.164;2023-11-18T00:20:45;18.88;;;13.45;;
76292;SDS011;67256;51.154;4.164;2023-11-18T00:23:11;16.73;;;12.60;;
76292;SDS011;67256;51.154;4.164;2023-11-18T00:25:37;18.30;;;12.85;;
76292;SDS011;67256;51.154;4.164;2023-11-18T00:28:05;15.48;;;11.52;;
76292;SDS011;67256;51.154;4.164;2023-11-18T00:30:34;22.05;;;12.38;;
76292;SDS011;67256;51.154;4.164;2023-11-18T00:33:00;17.60;;;12.38;;
76292;SDS011;67256;51.154;4.164;2023-11-18T00:35:26;25.50;;;12.15;;
76292;SDS011;67256;51.154;4.164;2023-11-18T00:37:51;20.10;;;11.98;;
76292;SDS011;67256;51.154;4.164;2023-11-18T00:40:17;19.95;;;12.30;;
76292;SDS011;67256;51.154;4.164;2023-11-18T00:42:43;22.45;;;11.70;;
76292;SDS011;67256;51.154;4.164;2023-11-18T00:45:10;20.15;;;12.07;;
76292;SDS011;67256;51.154;4.164;2023-11-18T00:47:38;19.67;;;12.30;;
76292;SDS011;67256;51.154;4.164;2023-11-18T00:50:06;23.45;;;12.85;;
76292;SDS011;67256;51.154;4.164;2023-11-18T00:52:33;19.10;;;12.90;;
76292;SDS011;67256;51.154;4.164;2023-11-18T00:54:59;26.23;;;12.82;;
76292;SDS011;67256;51.154;4.164;2023-11-18T00:57:26;25.48;;;12.95;;
76292;SDS011;67256;51.154;4.164;2023-11-18T00:59:52;23.02;;;12.15;;
76292;SDS011;67256;51.154;4.164;2023-11-18T01:02:18;26.75;;;11.63;;
76292;SDS011;67256;51.154;4.164;2023-11-18T01:04:44;20.27;;;13.35;;
76292;SDS011;67256;51.154;4.164;2023-11-18T01:07:11;25.15;;;12.40;;
76292;SDS011;67256;51.154;4.164;2023-11-18T01:09:37;20.98;;;12.38;;
76292;SDS011;67256;51.154;4.164;2023-11-18T01:12:04;22.23;;;12.40;;
76292;SDS011;67256;51.154;4.164;2023-11-18T01:14:32;15.20;;;10.95;;
76292;SDS011;67256;51.154;4.164;2023-11-18T01:16:59;17.35;;;12.00;;
76292;SDS011;67256;51.154;4.164;2023-11-18T01:19:25;19.70;;;11.68;;
76292;SDS011;67256;51.154;4.164;2023-11-18T01:21:51;16.35;;;11.27;;
76292;SDS011;67256;51.154;4.164;2023-11-18T01:24:18;17.38;;;10.75;;
76292;SDS011;67256;51.154;4.164;2023-11-18T01:26:44;17.42;;;11.10;;
76292;SDS011;67256;51.154;4.164;2023-11-18T01:29:10;18.05;;;10.90;;
76292;SDS011;67256;51.154;4.164;2023-11-18T01:31:36;17.90;;;10.68;;
76292;SDS011;67256;51.154;4.164;2023-11-18T01:34:02;26.58;;;11.10;;
76292;SDS011;67256;51.154;4.164;2023-11-18T01:36:29;16.83;;;10.68;;
76292;SDS011;67256;51.154;4.164;2023-11-18T01:38:55;20.45;;;11.52;;
76292;SDS011;67256;51.154;4.164;2023-11-18T01:41:21;21.85;;;11.45;;
76292;SDS011;67256;51.154;4.164;2023-11-18T01:43:47;17.20;;;12.20;;
76292;SDS011;67256;51.154;4.164;2023-11-18T01:46:13;17.38;;;11.00;;
76292;SDS011;67256;51.154;4.164;2023-11-18T01:48:41;21.10;;;10.77;;
76292;SDS011;67256;51.154;4.164;2023-11-18T01:51:08;17.60;;;10.95;;
76292;SDS011;67256;51.154;4.164;2023-11-18T01:53:37;20.42;;;11.60;;
76292;SDS011;67256;51.154;4.164;2023-11-18T01:56:05;19.00;;;10.88;;
76292;SDS011;67256;51.154;4.164;2023-11-18T01:58:34;16.80;;;9.80;;
76292;SDS011;67256;51.154;4.164;2023-11-18T02:01:01;20.60;;;11.90;;
76292;SDS011;67256;51.154;4.164;2023-11-18T02:03:28;19.25;;;11.20;;
76292;SDS011;67256;51.154;4.164;2023-11-18T02:05:55;17.23;;;10.68;;
76292;SDS011;67256;51.154;4.164;2023-11-18T02:08:22;24.83;;;13.15;;
76292;SDS011;67256;51.154;4.164;2023-11-18T02:10:54;26.17;;;11.75;;
76292;SDS011;67256;51.154;4.164;2023-11-18T02:13:23;23.58;;;11.23;;
76292;SDS011;67256;51.154;4.164;2023-11-18T02:18:20;17.25;;;10.40;;
76292;SDS011;67256;51.154;4.164;2023-11-18T02:20:47;20.30;;;10.25;;
76292;SDS011;67256;51.154;4.164;2023-11-18T02:23:14;20.35;;;11.18;;
76292;SDS011;67256;51.154;4.164;2023-11-18T02:25:45;21.83;;;10.48;;
76292;SDS011;67256;51.154;4.164;2023-11-18T02:28:12;23.27;;;10.77;;
76292;SDS011;67256;51.154;4.164;2023-11-18T02:30:39;20.38;;;10.32;;
76292;SDS011;67256;51.154;4.164;2023-11-18T02:33:16;22.20;;;9.82;;
76292;SDS011;67256;51.154;4.164;2023-11-18T02:35:53;19.50;;;10.27;;
76292;SDS011;67256;51.154;4.164;2023-11-18T02:38:22;22.15;;;9.82;;
76292;SDS011;67256;51.154;4.164;2023-11-18T02:40:55;18.52;;;9.90;;
76292;SDS011;67256;51.154;4.164;2023-11-18T02:43:24;16.70;;;9.27;;
76292;SDS011;67256;51.154;4.164;2023-11-18T02:45:53;16.80;;;9.50;;
76292;SDS011;67256;51.154;4.164;2023-11-18T02:48:21;17.38;;;9.70;;
76292;SDS011;67256;51.154;4.164;2023-11-18T02:50:48;17.80;;;9.27;;
76292;SDS011;67256;51.154;4.164;2023-11-18T02:53:14;16.13;;;9.05;;
76292;SDS011;67256;51.154;4.164;2023-11-18T02:55:40;18.95;;;9.80;;
76292;SDS011;67256;51.154;4.164;2023-11-18T02:58:06;23.60;;;10.70;;
76292;SDS011;67256;51.154;4.164;2023-11-18T03:00:33;16.55;;;9.60;;
76292;SDS011;67256;51.154;4.164;2023-11-18T03:02:59;19.27;;;9.45;;
76292;SDS011;67256;51.154;4.164;2023-11-18T03:05:24;21.23;;;8.60;;
76292;SDS011;67256;51.154;4.164;2023-11-18T03:07:51;15.88;;;8.60;;
76292;SDS011;67256;51.154;4.164;2023-11-18T03:10:20;17.77;;;8.45;;
76292;SDS011;67256;51.154;4.164;2023-11-18T03:12:49;16.92;;;9.00;;
76292;SDS011;67256;51.154;4.164;2023-11-18T03:15:17;18.50;;;8.65;;
76292;SDS011;67256;51.154;4.164;2023-11-18T03:17:45;18.02;;;8.57;;
76292;SDS011;67256;51.154;4.164;2023-11-18T03:20:13;23.70;;;8.90;;
76292;SDS011;67256;51.154;4.164;2023-11-18T03:22:44;15.80;;;7.57;;
76292;SDS011;67256;51.154;4.164;2023-11-18T03:25:13;14.77;;;6.93;;
76292;SDS011;67256;51.154;4.164;2023-11-18T03:27:39;18.25;;;7.53;;
76292;SDS011;67256;51.154;4.164;2023-11-18T03:30:05;15.85;;;8.13;;
76292;SDS011;67256;51.154;4.164;2023-11-18T03:32:33;19.65;;;7.47;;
76292;SDS011;67256;51.154;4.164;2023-11-18T03:35:03;20.75;;;9.20;;
76292;SDS011;67256;51.154;4.164;2023-11-18T03:37:34;23.35;;;9.43;;
76292;SDS011;67256;51.154;4.164;2023-11-18T03:40:09;20.48;;;7.90;;
76292;SDS011;67256;51.154;4.164;2023-11-18T03:42:37;16.85;;;7.90;;
76292;SDS011;67256;51.154;4.164;2023-11-18T03:45:05;12.63;;;7.25;;
76292;SDS011;67256;51.154;4.164;2023-11-18T03:47:31;17.92;;;7.70;;
76292;SDS011;67256;51.154;4.164;2023-11-18T03:49:58;14.25;;;7.93;;
76292;SDS011;67256;51.154;4.164;2023-11-18T03:52:24;18.00;;;8.23;;
76292;SDS011;67256;51.154;4.164;2023-11-18T03:54:50;19.58;;;7.90;;
76292;SDS011;67256;51.154;4.164;2023-11-18T03:57:16;15.85;;;7.57;;
76292;SDS011;67256;51.154;4.164;2023-11-18T03:59:42;23.60;;;8.38;;
76292;SDS011;67256;51.154;4.164;2023-11-18T04:02:08;18.13;;;6.95;;
76292;SDS011;67256;51.154;4.164;2023-11-18T04:04:36;12.88;;;7.20;;
76292;SDS011;67256;51.154;4.164;2023-11-18T04:07:02;13.77;;;6.97;;
76292;SDS011;67256;51.154;4.164;2023-11-18T04:09:29;17.48;;;7.63;;
76292;SDS011;67256;51.154;4.164;2023-11-18T04:11:55;17.90;;;6.10;;
76292;SDS011;67256;51.154;4.164;2023-11-18T04:14:21;19.27;;;6.15;;
76292;SDS011;67256;51.154;4.164;2023-11-18T04:16:47;18.55;;;7.03;;
76292;SDS011;67256;51.154;4.164;2023-11-18T04:19:14;14.65;;;7.13;;
76292;SDS011;67256;51.154;4.164;2023-11-18T04:21:40;14.60;;;6.25;;
76292;SDS011;67256;51.154;4.164;2023-11-18T04:24:06;29.80;;;7.70;;
76292;SDS011;67256;51.154;4.164;2023-11-18T04:26:32;17.67;;;7.22;;
76292;SDS011;67256;51.154;4.164;2023-11-18T04:28:58;15.55;;;6.78;;
76292;SDS011;67256;51.154;4.164;2023-11-18T04:31:24;17.30;;;6.60;;
76292;SDS011;67256;51.154;4.164;2023-11-18T04:33:50;15.50;;;6.72;;
76292;SDS011;67256;51.154;4.164;2023-11-18T04:36:16;20.15;;;6.50;;
76292;SDS011;67256;51.154;4.164;2023-11-18T04:38:44;19.02;;;6.55;;
76292;SDS011;67256;51.154;4.164;2023-11-18T04:41:10;15.90;;;7.50;;
76292;SDS011;67256;51.154;4.164;2023-11-18T04:43:36;19.38;;;6.85;;
76292;SDS011;67256;51.154;4.164;2023-11-18T04:46:04;24.75;;;7.47;;
76292;SDS011;67256;51.154;4.164;2023-11-18T04:48:30;21.30;;;6.32;;
76292;SDS011;67256;51.154;4.164;2023-11-18T04:50:58;30.02;;;8.23;;
76292;SDS011;67256;51.154;4.164;2023-11-18T04:53:23;19.40;;;6.32;;
76292;SDS011;67256;51.154;4.164;2023-11-18T04:55:50;19.85;;;6.97;;
76292;SDS011;67256;51.154;4.164;2023-11-18T04:58:16;20.60;;;7.30;;
76292;SDS011;67256;51.154;4.164;2023-11-18T05:00:42;23.05;;;8.00;;
76292;SDS011;67256;51.154;4.164;2023-11-18T05:03:08;19.25;;;6.18;;
76292;SDS011;67256;51.154;4.164;2023-11-18T05:05:36;24.75;;;7.55;;
76292;SDS011;67256;51.154;4.164;2023-11-18T05:08:05;22.40;;;8.38;;
76292;SDS011;67256;51.154;4.164;2023-11-18T05:10:32;20.30;;;7.07;;
76292;SDS011;67256;51.154;4.164;2023-11-18T05:12:59;19.73;;;6.82;;
76292;SDS011;67256;51.154;4.164;2023-11-18T05:15:25;19.15;;;6.47;;
76292;SDS011;67256;51.154;4.164;2023-11-18T05:17:54;23.95;;;6.20;;
76292;SDS011;67256;51.154;4.164;2023-11-18T05:20:20;25.65;;;7.07;;
76292;SDS011;67256;51.154;4.164;2023-11-18T05:22:46;19.20;;;6.35;;
76292;SDS011;67256;51.154;4.164;2023-11-18T05:25:12;17.77;;;5.70;;
76292;SDS011;67256;51.154;4.164;2023-11-18T05:27:39;15.07;;;5.20;;
76292;SDS011;67256;51.154;4.164;2023-11-18T05:30:06;25.08;;;5.28;;
76292;SDS011;67256;51.154;4.164;2023-11-18T05:32:35;15.98;;;4.70;;
76292;SDS011;67256;51.154;4.164;2023-11-18T05:35:01;19.75;;;5.07;;
76292;SDS011;67256;51.154;4.164;2023-11-18T05:37:31;14.88;;;4.85;;
76292;SDS011;67256;51.154;4.164;2023-11-18T05:40:03;11.48;;;3.63;;
76292;SDS011;67256;51.154;4.164;2023-11-18T05:42:35;18.60;;;3.63;;
76292;SDS011;67256;51.154;4.164;2023-11-18T05:45:02;17.73;;;4.60;;
76292;SDS011;67256;51.154;4.164;2023-11-18T05:47:30;10.68;;;4.18;;
76292;SDS011;67256;51.154;4.164;2023-11-18T05:49:56;8.63;;;3.05;;
76292;SDS011;67256;51.154;4.164;2023-11-18T05:52:22;16.45;;;3.33;;
76292;SDS011;67256;51.154;4.164;2023-11-18T05:54:48;11.13;;;3.47;;
76292;SDS011;67256;51.154;4.164;2023-11-18T05:57:17;9.65;;;2.80;;
76292;SDS011;67256;51.154;4.164;2023-11-18T05:59:44;11.27;;;3.00;;
76292;SDS011;67256;51.154;4.164;2023-11-18T06:02:13;9.05;;;3.28;;
76292;SDS011;67256;51.154;4.164;2023-11-18T06:04:43;11.70;;;2.65;;
76292;SDS011;67256;51.154;4.164;2023-11-18T06:07:09;12.32;;;3.05;;
76292;SDS011;67256;51.154;4.164;2023-11-18T06:09:38;12.40;;;2.70;;
76292;SDS011;67256;51.154;4.164;2023-11-18T06:12:09;10.60;;;2.83;;
76292;SDS011;67256;51.154;4.164;2023-11-18T06:14:36;19.55;;;2.95;;
76292;SDS011;67256;51.154;4.164;2023-11-18T06:17:02;11.52;;;2.22;;
76292;SDS011;67256;51.154;4.164;2023-11-18T06:19:28;10.80;;;2.20;;
76292;SDS011;67256;51.154;4.164;2023-11-18T06:21:54;6.93;;;2.28;;
76292;SDS011;67256;51.154;4.164;2023-11-18T06:24:20;9.75;;;2.20;;
76292;SDS011;67256;51.154;4.164;2023-11-18T06:26:47;10.07;;;2.05;;
76292;SDS011;67256;51.154;4.164;2023-11-18T06:29:14;8.75;;;2.25;;
76292;SDS011;67256;51.154;4.164;2023-11-18T06:31:41;9.05;;;2.30;;
76292;SDS011;67256;51.154;4.164;2023-11-18T06:34:08;10.18;;;3.05;;
76292;SDS011;67256;51.154;4.164;2023-11-18T06:36:33;10.90;;;2.75;;
76292;SDS011;67256;51.154;4.164;2023-11-18T06:39:00;15.20;;;3.08;;
76292;SDS011;67256;51.154;4.164;2023-11-18T06:41:26;11.23;;;1.90;;
76292;SDS011;67256;51.154;4.164;2023-11-18T06:43:59;8.30;;;2.10;;
76292;SDS011;67256;51.154;4.164;2023-11-18T06:46:33;13.38;;;3.08;;
76292;SDS011;67256;51.154;4.164;2023-11-18T06:49:02;9.32;;;2.63;;
76292;SDS011;67256;51.154;4.164;2023-11-18T06:51:40;10.93;;;2.72;;
76292;SDS011;67256;51.154;4.164;2023-11-18T06:54:06;9.40;;;2.83;;
76292;SDS011;67256;51.154;4.164;2023-11-18T06:56:39;16.52;;;3.97;;
76292;SDS011;67256;51.154;4.164;2023-11-18T06:59:10;6.57;;;1.80;;
76292;SDS011;67256;51.154;4.164;2023-11-18T07:01:39;11.32;;;2.45;;
76292;SDS011;67256;51.154;4.164;2023-11-18T07:06:34;17.13;;;3.33;;
76292;SDS011;67256;51.154;4.164;2023-11-18T07:09:03;17.03;;;2.73;;
76292;SDS011;67256;51.154;4.164;2023-11-18T07:11:42;6.75;;;2.30;;
76292;SDS011;67256;51.154;4.164;2023-11-18T07:14:08;10.60;;;3.00;;
76292;SDS011;67256;51.154;4.164;2023-11-18T07:16:35;9.07;;;2.75;;
76292;SDS011;67256;51.154;4.164;2023-11-18T07:19:02;11.13;;;2.53;;
76292;SDS011;67256;51.154;4.164;2023-11-18T07:21:31;17.80;;;2.60;;
76292;SDS011;67256;51.154;4.164;2023-11-18T07:23:58;7.90;;;2.10;;
76292;SDS011;67256;51.154;4.164;2023-11-18T07:26:24;12.77;;;2.58;;
76292;SDS011;67256;51.154;4.164;2023-11-18T07:28:50;11.43;;;2.72;;
76292;SDS011;67256;51.154;4.164;2023-11-18T07:31:17;11.70;;;3.00;;
76292;SDS011;67256;51.154;4.164;2023-11-18T07:33:44;8.85;;;2.25;;
76292;SDS011;67256;51.154;4.164;2023-11-18T07:36:15;9.75;;;2.25;;
76292;SDS011;67256;51.154;4.164;2023-11-18T07:38:41;10.73;;;2.60;;
76292;SDS011;67256;51.154;4.164;2023-11-18T07:41:07;11.30;;;2.58;;
76292;SDS011;67256;51.154;4.164;2023-11-18T07:43:34;17.55;;;2.88;;
76292;SDS011;67256;51.154;4.164;2023-11-18T07:46:05;8.43;;;2.05;;
76292;SDS011;67256;51.154;4.164;2023-11-18T07:48:33;12.05;;;2.83;;
76292;SDS011;67256;51.154;4.164;2023-11-18T07:51:00;12.30;;;3.22;;
76292;SDS011;67256;51.154;4.164;2023-11-18T07:53:27;8.88;;;3.63;;
76292;SDS011;67256;51.154;4.164;2023-11-18T07:55:54;17.77;;;3.33;;
76292;SDS011;67256;51.154;4.164;2023-11-18T07:58:20;12.07;;;2.75;;
76292;SDS011;67256;51.154;4.164;2023-11-18T08:00:48;14.05;;;3.13;;
76292;SDS011;67256;51.154;4.164;2023-11-18T08:03:15;13.02;;;3.65;;
76292;SDS011;67256;51.154;4.164;2023-11-18T08:05:41;11.77;;;3.00;;
76292;SDS011;67256;51.154;4.164;2023-11-18T08:08:11;13.45;;;2.97;;
76292;SDS011;67256;51.154;4.164;2023-11-18T08:10:38;15.95;;;3.40;;
76292;SDS011;67256;51.154;4.164;2023-11-18T08:13:05;11.40;;;2.70;;
76292;SDS011;67256;51.154;4.164;2023-11-18T08:15:33;12.57;;;3.45;;
76292;SDS011;67256;51.154;4.164;2023-11-18T08:18:00;8.65;;;2.78;;
76292;SDS011;67256;51.154;4.164;2023-11-18T08:20:27;15.13;;;2.97;;
76292;SDS011;67256;51.154;4.164;2023-11-18T08:22:53;20.50;;;3.33;;
76292;SDS011;67256;51.154;4.164;2023-11-18T08:25:20;12.32;;;3.30;;
76292;SDS011;67256;51.154;4.164;2023-11-18T08:27:46;12.48;;;3.20;;
76292;SDS011;67256;51.154;4.164;2023-11-18T08:30:13;11.48;;;3.10;;
76292;SDS011;67256;51.154;4.164;2023-11-18T08:32:40;10.10;;;3.00;;
76292;SDS011;67256;51.154;4.164;2023-11-18T08:35:10;14.90;;;4.15;;
76292;SDS011;67256;51.154;4.164;2023-11-18T08:37:39;11.38;;;3.13;;
76292;SDS011;67256;51.154;4.164;2023-11-18T08:40:07;11.23;;;4.43;;
76292;SDS011;67256;51.154;4.164;2023-11-18T08:45:19;14.23;;;4.18;;
76292;SDS011;67256;51.154;4.164;2023-11-18T08:47:47;12.30;;;4.20;;
76292;SDS011;67256;51.154;4.164;2023-11-18T08:50:13;14.10;;;3.25;;
76292;SDS011;67256;51.154;4.164;2023-11-18T08:52:42;13.90;;;3.83;;
76292;SDS011;67256;51.154;4.164;2023-11-18T08:55:12;14.20;;;3.45;;
76292;SDS011;67256;51.154;4.164;2023-11-18T08:57:46;7.38;;;3.20;;
76292;SDS011;67256;51.154;4.164;2023-11-18T09:00:25;18.25;;;3.60;;
76292;SDS011;67256;51.154;4.164;2023-11-18T09:03:12;14.05;;;4.95;;
76292;SDS011;67256;51.154;4.164;2023-11-18T09:06:00;10.80;;;4.20;;
76292;SDS011;67256;51.154;4.164;2023-11-18T09:08:34;12.95;;;3.55;;
76292;SDS011;67256;51.154;4.164;2023-11-18T09:11:01;10.73;;;3.50;;
76292;SDS011;67256;51.154;4.164;2023-11-18T09:13:30;12.48;;;3.30;;
76292;SDS011;67256;51.154;4.164;2023-11-18T09:16:00;10.40;;;3.95;;
76292;SDS011;67256;51.154;4.164;2023-11-18T09:18:28;15.05;;;4.57;;
76292;SDS011;67256;51.154;4.164;2023-11-18T09:20:58;12.07;;;4.30;;
76292;SDS011;67256;51.154;4.164;2023-11-18T09:23:26;9.43;;;4.07;;
76292;SDS011;67256;51.154;4.164;2023-11-18T09:25:53;11.32;;;4.72;;
76292;SDS011;67256;51.154;4.164;2023-11-18T09:28:20;9.13;;;4.07;;
76292;SDS011;67256;51.154;4.164;2023-11-18T09:30:48;15.30;;;4.53;;
76292;SDS011;67256;51.154;4.164;2023-11-18T09:33:22;11.38;;;5.10;;
76292;SDS011;67256;51.154;4.164;2023-11-18T09:38:29;11.48;;;4.20;;
76292;SDS011;67256;51.154;4.164;2023-11-18T09:40:57;13.73;;;5.15;;
76292;SDS011;67256;51.154;4.164;2023-11-18T09:43:35;13.93;;;4.63;;
76292;SDS011;67256;51.154;4.164;2023-11-18T09:46:10;13.13;;;4.65;;
76292;SDS011;67256;51.154;4.164;2023-11-18T09:51:22;10.93;;;5.10;;
76292;SDS011;67256;51.154;4.164;2023-11-18T09:53:52;17.23;;;5.20;;
76292;SDS011;67256;51.154;4.164;2023-11-18T10:02:08;11.75;;;4.90;;
76292;SDS011;67256;51.154;4.164;2023-11-18T10:04:36;10.15;;;4.70;;
76292;SDS011;67256;51.154;4.164;2023-11-18T10:07:04;11.33;;;5.43;;
76292;SDS011;67256;51.154;4.164;2023-11-18T10:09:36;11.43;;;5.75;;
76292;SDS011;67256;51.154;4.164;2023-11-18T10:12:06;9.33;;;5.13;;
76292;SDS011;67256;51.154;4.164;2023-11-18T10:16:59;11.95;;;5.18;;
76292;SDS011;67256;51.154;4.164;2023-11-18T10:22:21;9.07;;;4.80;;
76292;SDS011;67256;51.154;4.164;2023-11-18T10:24:49;7.93;;;4.70;;
76292;SDS011;67256;51.154;4.164;2023-11-18T10:27:20;13.73;;;4.75;;
76292;SDS011;67256;51.154;4.164;2023-11-18T10:29:50;10.02;;;4.60;;
76292;SDS011;67256;51.154;4.164;2023-11-18T10:32:19;8.50;;;5.15;;
76292;SDS011;67256;51.154;4.164;2023-11-18T10:34:47;9.20;;;4.53;;
76292;SDS011;67256;51.154;4.164;2023-11-18T10:37:16;13.27;;;4.65;;
76292;SDS011;67256;51.154;4.164;2023-11-18T10:39:46;8.00;;;4.57;;
76292;SDS011;67256;51.154;4.164;2023-11-18T10:42:16;8.15;;;4.65;;
76292;SDS011;67256;51.154;4.164;2023-11-18T10:44:57;8.55;;;5.13;;
76292;SDS011;67256;51.154;4.164;2023-11-18T10:47:26;9.85;;;4.35;;
76292;SDS011;67256;51.154;4.164;2023-11-18T10:49:56;9.75;;;4.80;;
76292;SDS011;67256;51.154;4.164;2023-11-18T10:52:22;9.32;;;4.78;;
76292;SDS011;67256;51.154;4.164;2023-11-18T10:54:55;8.20;;;5.18;;
76292;SDS011;67256;51.154;4.164;2023-11-18T10:57:21;8.25;;;4.60;;
76292;SDS011;67256;51.154;4.164;2023-11-18T11:00:03;9.90;;;4.28;;
76292;SDS011;67256;51.154;4.164;2023-11-18T11:02:39;9.05;;;4.88;;
76292;SDS011;67256;51.154;4.164;2023-11-18T11:05:06;9.45;;;4.43;;
76292;SDS011;67256;51.154;4.164;2023-11-18T11:07:33;8.27;;;4.90;;
76292;SDS011;67256;51.154;4.164;2023-11-18T11:10:00;7.88;;;4.40;;
76292;SDS011;67256;51.154;4.164;2023-11-18T11:12:33;6.47;;;4.50;;
76292;SDS011;67256;51.154;4.164;2023-11-18T11:15:08;6.70;;;3.85;;
76292;SDS011;67256;51.154;4.164;2023-11-18T11:17:40;6.75;;;3.75;;
76292;SDS011;67256;51.154;4.164;2023-11-18T11:20:12;9.05;;;4.05;;
76292;SDS011;67256;51.154;4.164;2023-11-18T11:22:51;7.47;;;4.18;;
76292;SDS011;67256;51.154;4.164;2023-11-18T11:28:50;9.77;;;4.45;;
76292;SDS011;67256;51.154;4.164;2023-11-18T11:31:31;7.25;;;3.70;;
76292;SDS011;67256;51.154;4.164;2023-11-18T11:34:09;6.63;;;3.25;;
76292;SDS011;67256;51.154;4.164;2023-11-18T11:36:49;8.52;;;4.07;;
76292;SDS011;67256;51.154;4.164;2023-11-18T11:39:17;4.90;;;2.90;;
76292;SDS011;67256;51.154;4.164;2023-11-18T11:41:51;5.55;;;2.75;;
76292;SDS011;67256;51.154;4.164;2023-11-18T11:44:19;5.45;;;2.85;;
76292;SDS011;67256;51.154;4.164;2023-11-18T11:46:48;4.32;;;2.40;;
76292;SDS011;67256;51.154;4.164;2023-11-18T11:49:19;6.70;;;2.15;;
76292;SDS011;67256;51.154;4.164;2023-11-18T11:51:57;4.43;;;2.33;;
76292;SDS011;67256;51.154;4.164;2023-11-18T11:54:48;3.85;;;1.73;;
76292;SDS011;67256;51.154;4.164;2023-11-18T11:57:24;3.95;;;1.77;;
76292;SDS011;67256;51.154;4.164;2023-11-18T12:02:23;5.05;;;1.83;;
76292;SDS011;67256;51.154;4.164;2023-11-18T12:04:57;1.95;;;1.50;;
76292;SDS011;67256;51.154;4.164;2023-11-18T12:07:27;2.78;;;1.33;;
76292;SDS011;67256;51.154;4.164;2023-11-18T12:09:56;2.65;;;1.50;;
76292;SDS011;67256;51.154;4.164;2023-11-18T12:12:26;6.47;;;1.80;;
76292;SDS011;67256;51.154;4.164;2023-11-18T12:14:59;3.85;;;1.70;;
76292;SDS011;67256;51.154;4.164;2023-11-18T12:23:35;3.55;;;1.60;;
76292;SDS011;67256;51.154;4.164;2023-11-18T12:26:01;3.80;;;1.60;;
76292;SDS011;67256;51.154;4.164;2023-11-18T12:28:34;2.28;;;1.15;;
76292;SDS011;67256;51.154;4.164;2023-11-18T12:31:00;7.97;;;1.45;;
76292;SDS011;67256;51.154;4.164;2023-11-18T12:39:22;2.45;;;1.38;;
76292;SDS011;67256;51.154;4.164;2023-11-18T12:42:02;3.22;;;1.13;;
76292;SDS011;67256;51.154;4.164;2023-11-18T12:44:35;3.97;;;1.25;;
76292;SDS011;67256;51.154;4.164;2023-11-18T12:47:05;2.65;;;1.13;;
76292;SDS011;67256;51.154;4.164;2023-11-18T12:49:43;2.67;;;1.25;;
76292;SDS011;67256;51.154;4.164;2023-11-18T12:52:15;3.90;;;1.50;;
76292;SDS011;67256;51.154;4.164;2023-11-18T12:54:44;3.43;;;1.33;;
76292;SDS011;67256;51.154;4.164;2023-11-18T12:57:15;3.80;;;1.20;;
76292;SDS011;67256;51.154;4.164;2023-11-18T12:59:47;2.60;;;1.40;;
76292;SDS011;67256;51.154;4.164;2023-11-18T13:02:15;4.75;;;1.60;;
76292;SDS011;67256;51.154;4.164;2023-11-18T13:04:47;3.42;;;1.45;;
76292;SDS011;67256;51.154;4.164;2023-11-18T13:09:43;4.22;;;1.80;;
76292;SDS011;67256;51.154;4.164;2023-11-18T13:12:11;3.67;;;1.70;;
76292;SDS011;67256;51.154;4.164;2023-11-18T13:14:40;2.95;;;1.50;;
76292;SDS011;67256;51.154;4.164;2023-11-18T13:17:11;3.90;;;1.77;;
76292;SDS011;67256;51.154;4.164;2023-11-18T13:19:38;3.70;;;1.67;;
76292;SDS011;67256;51.154;4.164;2023-11-18T13:22:06;3.28;;;1.75;;
76292;SDS011;67256;51.154;4.164;2023-11-18T13:24:34;2.80;;;1.70;;
76292;SDS011;67256;51.154;4.164;2023-11-18T13:27:01;4.40;;;1.42;;
76292;SDS011;67256;51.154;4.164;2023-11-18T13:29:32;3.03;;;1.20;;
76292;SDS011;67256;51.154;4.164;2023-11-18T13:31:59;3.47;;;1.52;;
76292;SDS011;67256;51.154;4.164;2023-11-18T13:36:59;2.08;;;1.45;;
76292;SDS011;67256;51.154;4.164;2023-11-18T13:39:26;3.88;;;1.30;;
76292;SDS011;67256;51.154;4.164;2023-11-18T13:41:56;4.30;;;1.50;;
76292;SDS011;67256;51.154;4.164;2023-11-18T13:44:32;6.93;;;1.35;;
76292;SDS011;67256;51.154;4.164;2023-11-18T13:47:03;2.92;;;1.35;;
76292;SDS011;67256;51.154;4.164;2023-11-18T13:49:33;4.65;;;1.83;;
76292;SDS011;67256;51.154;4.164;2023-11-18T13:51:59;5.28;;;1.40;;
76292;SDS011;67256;51.154;4.164;2023-11-18T13:54:29;3.13;;;1.50;;
76292;SDS011;67256;51.154;4.164;2023-11-18T13:56:56;7.78;;;1.48;;
76292;SDS011;67256;51.154;4.164;2023-11-18T13:59:24;2.95;;;1.20;;
76292;SDS011;67256;51.154;4.164;2023-11-18T14:01:53;2.75;;;1.52;;
76292;SDS011;67256;51.154;4.164;2023-11-18T14:04:26;2.35;;;1.23;;
76292;SDS011;67256;51.154;4.164;2023-11-18T14:06:53;4.30;;;1.13;;
76292;SDS011;67256;51.154;4.164;2023-11-18T14:09:22;3.38;;;1.23;;
76292;SDS011;67256;51.154;4.164;2023-11-18T14:11:53;1.23;;;0.80;;
76292;SDS011;67256;51.154;4.164;2023-11-18T14:14:22;1.23;;;0.75;;
76292;SDS011;67256;51.154;4.164;2023-11-18T14:16:50;2.75;;;0.93;;
76292;SDS011;67256;51.154;4.164;2023-11-18T14:19:18;2.05;;;1.30;;
76292;SDS011;67256;51.154;4.164;2023-11-18T14:21:45;3.03;;;2.17;;
76292;SDS011;67256;51.154;4.164;2023-11-18T14:24:11;2.67;;;1.08;;
76292;SDS011;67256;51.154;4.164;2023-11-18T14:26:39;2.17;;;1.00;;
76292;SDS011;67256;51.154;4.164;2023-11-18T14:29:06;1.45;;;0.98;;
76292;SDS011;67256;51.154;4.164;2023-11-18T14:31:35;2.10;;;1.20;;
76292;SDS011;67256;51.154;4.164;2023-11-18T14:34:01;2.88;;;1.30;;
76292;SDS011;67256;51.154;4.164;2023-11-18T14:36:27;1.88;;;1.25;;
76292;SDS011;67256;51.154;4.164;2023-11-18T14:38:53;1.63;;;1.35;;
76292;SDS011;67256;51.154;4.164;2023-11-18T14:41:19;1.90;;;1.40;;
76292;SDS011;67256;51.154;4.164;2023-11-18T14:43:50;3.00;;;1.23;;
76292;SDS011;67256;51.154;4.164;2023-11-18T14:46:16;2.30;;;1.23;;
76292;SDS011;67256;51.154;4.164;2023-11-18T14:48:43;3.28;;;1.23;;
76292;SDS011;67256;51.154;4.164;2023-11-18T14:51:09;1.55;;;1.05;;
76292;SDS011;67256;51.154;4.164;2023-11-18T14:53:36;2.65;;;1.10;;
76292;SDS011;67256;51.154;4.164;2023-11-18T14:56:02;3.60;;;1.77;;
76292;SDS011;67256;51.154;4.164;2023-11-18T14:58:30;3.17;;;1.13;;
76292;SDS011;67256;51.154;4.164;2023-11-18T15:00:59;1.35;;;1.10;;
76292;SDS011;67256;51.154;4.164;2023-11-18T15:03:25;7.03;;;1.23;;
76292;SDS011;67256;51.154;4.164;2023-11-18T15:05:51;3.65;;;1.55;;
76292;SDS011;67256;51.154;4.164;2023-11-18T15:08:17;14.88;;;1.67;;
76292;SDS011;67256;51.154;4.164;2023-11-18T15:10:42;3.35;;;1.70;;
76292;SDS011;67256;51.154;4.164;2023-11-18T15:13:09;3.47;;;1.33;;
76292;SDS011;67256;51.154;4.164;2023-11-18T15:15:42;1.80;;;1.30;;
76292;SDS011;67256;51.154;4.164;2023-11-18T15:18:12;2.25;;;1.40;;
76292;SDS011;67256;51.154;4.164;2023-11-18T15:20:39;2.50;;;1.45;;
76292;SDS011;67256;51.154;4.164;2023-11-18T15:23:11;2.53;;;1.40;;
76292;SDS011;67256;51.154;4.164;2023-11-18T15:25:38;5.43;;;1.50;;
76292;SDS011;67256;51.154;4.164;2023-11-18T15:28:05;2.22;;;1.52;;
76292;SDS011;67256;51.154;4.164;2023-11-18T15:30:38;3.03;;;1.70;;
76292;SDS011;67256;51.154;4.164;2023-11-18T15:33:05;2.72;;;1.85;;